Airfield :
LOGIN :

Register | Disclaimer

   EN    FR    IT 

 










Legend :    VFR   Marginal VFR   IFR   Intensive IFR   Very Intensive IFR
Visi :
Ceiling :
>= 8 km
>= 3000ft
5 to 8 km
1000 to 3000 ft
1500m to 5 km
500 to 1000 ft
800 to 1500m
200 to 500 ft
< 800m
< 200 ft
Symbols :   Thunderstorms  Fog  Heavy snow  Heavy precipitations  Wind > 20 kt
SIGMETs :     Misc.  Thunderstorms  Icing  Turbulence  Mountain Waves  Volcanic Ashes







- Airport Elevation : 13 ft
- IATA code : CEQ
- Download approach charts


LFMD - Cannes Mandelieu

CURRENT METAR :
  • 112130Z AUTO VRB04KT CAVOK 07/05 Q1018

EXPIRED METARs :
  • 112100Z AUTO VRB04KT 9999 FEW038 07/05 Q1018
  • 112030Z AUTO VRB04KT 9999 BKN035 BKN046 BKN054 07/05 Q1018
  • 112000Z AUTO 01004KT 290V060 9999 SCT039 07/05 Q1018
  • 111930Z AUTO VRB03KT 9999 FEW038 BKN054 08/06 Q1018
  • 111900Z AUTO VRB04KT 9999 FEW033 SCT052 BKN062 08/06 Q1018 NOSIG

TAF TAF LFMD
Valid from the 11 at 15:00 until the 12 at 15:00 UTC


111400Z 1115/1215 14010KT 9999 BKN040
BECMG 1119/1121 34010KT
ATIS : +33 4 93 48 73 23
No reported NOTAMs for that airfield.



MET'MAP, your aeronautical weather chart ! - Copyright ORBIFLY December 2007 - Disclaimer

ORBIFLY MET'MAP TEAM :

Programming & Development : Alexandra Zaïnal
Concept & Development : Baudouin d'Aumeries
Co-Development & Prog : Marc-Olivier Méhu
Technical & hardware support : Manuel Goepfert

Contact : metmap@orbifly.com




SOURCES & CREDITS :

   NOAA